Terminal Aerodrome Forecast
Issued by NWS Wilmington, OH

Current Version | Previous Version | Text Only | Print | Product List | Glossary Off
Versions: 1 2 3 4 5 6 7 8 9 10 11 12 13 14

853
FTUS41 KILN 221029 AAA
TAFDAY
TAF AMD
KDAY 221029Z 2210/2306 VRB03KT P6SM SCT150
     FM221500 07004KT P6SM SCT040
     FM222300 00000KT P6SM SKC=

USA.gov is the U.S. government's official web portal to all federal, state and local government web resources and services.